Provo, UT (84603)

1:16 PM MDT on July 27, 2016 (GMT -0600)
APRSWXNET | | Change Station

Elev 4563 ft 40.24 °N, 111.69 °W | Updated 18 minutes ago

Clear
Clear
94 °F
Feels Like 90 °F
N
2
Wind Variable Wind from SSE
Gusts 6.0 mph

Today
High -- | Low -- °F
--% Chance of Precip.
Yesterday
High -- | Low -- °F
Precip. -- in
Pressure 30.17 in
Visibility 10.0 miles
Clouds Clear
Heat Index 90 °F
Dew Point 45 °F
Humidity 19%
Rainfall in
Snow Depth Not available.
6:20 AM 8:45 PM
Last Quarter, 40% visible
METAR KPVU 271847Z VRB04KT 10SM SKC 31/11 A3017
Pressure 30.17 in
Visibility 10.0 miles
Clouds Clear
Heat Index 90 °F
Dew Point 45 °F
Humidity 19%
Rainfall in
Snow Depth Not available.
6:20 AM 8:45 PM
Last Quarter, 40% visible
METAR KPVU 271847Z VRB04KT 10SM SKC 31/11 A3017

10-Day Weather Forecast

Almanac

Astronomy

Jul. 27, 2016 Rise Set
Actual Time
Civil Twilight
Nautical Twilight
Astronomical Twilight
Moon
Length of Visible Light
Length of Day
Tomorrow will be .
, % of the Moon is Illuminated

Today's Extremes

State Highs State Lows

Community

WunderPhotos

Upload Photos

1,927,909 photos uploaded!

WunderBlog® & News

Nearby

Air Quality

  Air Quality AQ Index Pollutant
Not available.

Snow Depth

Station Depth Elevation

Earthquake Activity

City Distance Mag. Time & Date
Minimum magnitude displayed is 2.5.

Coastal Water Temperatures

Place Temperature

Stations

Nearby Weather Stations

Station Location Temp. Windchill Dew Point Humidity Wind Precip. Elev Updated Type
                   

Watches & Warnings

There are currently no watches in effect.